首页
METAR-TAF:

METAR-TAF

机场 :

Rocky Mount-Wilson Regional Airport

Rocky Mount, 北卡罗来纳州, 美国

纬度: 35-51-18N, 经度: 077-53-35W, 海拔: 49米

当前天气观测

该预报发布于1小时和6分钟前的13:53 UTC
静风
温度 5°C
湿度 75%
气压 1027 hPa
能見度: 16.1公里
天空无云

METAR: KRWI 231353Z AUTO 00000KT 10SM CLR 05/01 A3032 RMK AO2 SLP267 T00500006

时间: 09:59 (14:59 UTC)

预报

该预报发布于3小时和24分钟前的11:35 UTC
预报有效从23日的 12点(UTC)到 24日的 12点(UTC)
风速3节,风向多变
能見度: 10公里
天空无云
从 23日的 2200点(UTC)
风速5节,风向西转西南
能見度: 10公里
多云层高于25000英尺

TAF: KRWI 231135Z 2312/2412 VRB03KT P6SM SKC FM232200 24005KT P6SM BKN250

超过4000个机场的气象观测和天气预报(METAR&TAF报告)。

可查询的气象台以黄色和红色小点在地图上表示。

将鼠标移到小点上方,可查看气象台名称。

然后点击查看天气观测和预报。

如需切换地图:点击带黑十字的绿色按钮放大地图;点击带横线的绿色按钮缩小地图;或者点击绿色箭头查看邻近地区的地图。


METAR-TAF: